Time;durP1;ratioP1;P1;durP2;ratioP2;P2;SDS_P1;SDS_P2;PMS_P1;PMS_P2;Temp;Humidity;BMP_temperature;BMP_pressure;BME280_temperature;BME280_humidity;BME280_pressure;Samples;Min_cycle;Max_cycle;Signal;HPM_P1;HPM_P2
2023/01/17 00:00:13;;;;;;;6.15;0.93;;;;;;;;;;4964588;28;20057;-75
2023/01/17 00:02:40;;;;;;;5.88;1.23;;;;;;;;;;4968735;28;20553;-75
2023/01/17 00:10:39;;;;;;;7.50;0.63;;;;;;;;;;4969358;28;20506;-75
2023/01/17 00:13:07;;;;;;;8.60;0.70;;;;;;;;;;4966423;28;20114;-75
2023/01/17 00:15:34;;;;;;;9.15;0.80;;;;;;;;;;4967499;28;20082;-75
2023/01/17 00:18:01;;;;;;;11.88;1.00;;;;;;;;;;4966422;28;20505;-75
2023/01/17 00:26:04;;;;;;;10.32;0.70;;;;;;;;;;4967581;28;20050;-75
2023/01/17 01:35:37;;;;;;;11.73;2.30;;;;;;;;;;4966847;28;20105;-74
2023/01/17 01:38:04;;;;;;;9.93;0.68;;;;;;;;;;4961819;28;20058;-75
2023/01/17 01:40:31;;;;;;;11.15;1.25;;;;;;;;;;4962799;28;20054;-74
2023/01/17 01:43:04;;;;;;;4.97;0.68;;;;;;;;;;4966527;28;20568;-74
2023/01/17 01:45:32;;;;;;;9.90;0.90;;;;;;;;;;4968475;28;20050;-74
2023/01/17 01:48:02;;;;;;;12.48;1.05;;;;;;;;;;4965943;28;20050;-74
2023/01/17 01:50:31;;;;;;;14.15;1.33;;;;;;;;;;4961696;28;20415;-74
2023/01/17 01:53:01;;;;;;;16.08;2.00;;;;;;;;;;4965224;28;20050;-74
2023/01/17 01:55:29;;;;;;;9.55;0.85;;;;;;;;;;4962353;28;20051;-74
2023/01/17 01:57:59;;;;;;;13.13;1.30;;;;;;;;;;4967360;28;20525;-74
2023/01/17 02:00:29;;;;;;;12.23;2.17;;;;;;;;;;4967695;28;20522;-74
2023/01/17 02:02:58;;;;;;;8.65;0.82;;;;;;;;;;4964038;28;20050;-74
2023/01/17 02:05:26;;;;;;;11.15;1.50;;;;;;;;;;4967110;28;20054;-74
2023/01/17 02:07:55;;;;;;;7.35;0.90;;;;;;;;;;4966980;28;20059;-74
2023/01/17 02:10:22;;;;;;;8.48;0.90;;;;;;;;;;4964682;28;20412;-74
2023/01/17 02:12:50;;;;;;;19.13;2.15;;;;;;;;;;4962818;28;20055;-74
2023/01/17 02:15:17;;;;;;;9.73;0.50;;;;;;;;;;4966328;28;20050;-75
2023/01/17 02:17:52;;;;;;;8.15;0.55;;;;;;;;;;4967251;28;20568;-74
2023/01/17 02:20:35;;;;;;;6.18;0.60;;;;;;;;;;4967116;28;20513;-74
2023/01/17 02:23:22;;;;;;;5.10;0.35;;;;;;;;;;4968729;28;20046;-74
2023/01/17 02:26:10;;;;;;;6.18;0.50;;;;;;;;;;4969402;28;20402;-74
2023/01/17 02:28:47;;;;;;;10.23;0.65;;;;;;;;;;4954846;28;20077;-74
2023/01/17 02:31:18;;;;;;;9.25;0.80;;;;;;;;;;4963238;28;20055;-74
2023/01/17 02:33:49;;;;;;;20.73;0.80;;;;;;;;;;4962953;28;20058;-74
2023/01/17 02:36:20;;;;;;;6.55;0.90;;;;;;;;;;4962717;28;20054;-74
2023/01/17 02:38:51;;;;;;;7.90;0.80;;;;;;;;;;4971211;28;20054;-74
2023/01/17 02:41:22;;;;;;;5.30;0.60;;;;;;;;;;4970231;28;20080;-74
2023/01/17 02:43:49;;;;;;;6.95;0.70;;;;;;;;;;4968236;28;20054;-74
2023/01/17 02:46:18;;;;;;;6.57;0.98;;;;;;;;;;4970138;28;20047;-74
2023/01/17 02:48:46;;;;;;;8.57;0.73;;;;;;;;;;4967585;28;20051;-74
2023/01/17 02:51:32;;;;;;;17.92;1.38;;;;;;;;;;4971220;28;20055;-74
2023/01/17 02:54:14;;;;;;;10.07;0.90;;;;;;;;;;4965385;28;20054;-74
2023/01/17 02:56:49;;;;;;;13.55;1.20;;;;;;;;;;4969542;28;20066;-74
2023/01/17 02:59:21;;;;;;;13.63;1.10;;;;;;;;;;4968903;28;20450;-74
2023/01/17 03:02:09;;;;;;;6.97;0.80;;;;;;;;;;4967119;28;20062;-74
2023/01/17 03:04:39;;;;;;;6.05;0.70;;;;;;;;;;4983574;28;20051;-74
2023/01/17 03:07:09;;;;;;;9.80;0.85;;;;;;;;;;4965696;28;20038;-74
2023/01/17 03:09:37;;;;;;;5.28;0.60;;;;;;;;;;4960388;28;20052;-73
2023/01/17 03:12:04;;;;;;;14.27;0.75;;;;;;;;;;4966201;28;20054;-74
2023/01/17 03:14:32;;;;;;;6.72;0.60;;;;;;;;;;4967708;28;20077;-74
2023/01/17 03:17:00;;;;;;;5.65;0.55;;;;;;;;;;4971685;28;20055;-73
2023/01/17 03:19:28;;;;;;;11.20;1.08;;;;;;;;;;4969270;28;20063;-73
2023/01/17 03:21:55;;;;;;;11.60;1.48;;;;;;;;;;4972584;28;20078;-73
2023/01/17 03:24:23;;;;;;;7.70;0.90;;;;;;;;;;4969906;28;20058;-73
2023/01/17 03:26:50;;;;;;;12.85;0.82;;;;;;;;;;4971268;28;20497;-73
2023/01/17 03:29:17;;;;;;;12.18;1.25;;;;;;;;;;4968047;28;20045;-72
2023/01/17 03:31:45;;;;;;;11.70;1.92;;;;;;;;;;4971829;28;20066;-72
2023/01/17 03:34:14;;;;;;;9.23;0.52;;;;;;;;;;4961632;28;20054;-72
2023/01/17 03:36:41;;;;;;;4.93;0.55;;;;;;;;;;4968733;28;20538;-73
2023/01/17 03:39:08;;;;;;;4.07;0.32;;;;;;;;;;4971361;28;20055;-72
2023/01/17 03:41:35;;;;;;;6.80;0.80;;;;;;;;;;4968209;28;20054;-72
2023/01/17 03:44:02;;;;;;;4.28;0.40;;;;;;;;;;4967700;28;20057;-73
2023/01/17 03:46:30;;;;;;;3.78;0.47;;;;;;;;;;4966497;28;20055;-72
2023/01/17 03:48:57;;;;;;;6.25;0.60;;;;;;;;;;4965501;28;20057;-72
2023/01/17 03:51:26;;;;;;;5.63;1.30;;;;;;;;;;4967347;28;20059;-73
2023/01/17 03:53:53;;;;;;;7.95;0.70;;;;;;;;;;4967943;28;20053;-73
2023/01/17 03:56:20;;;;;;;8.90;0.75;;;;;;;;;;4971297;28;20059;-73
2023/01/17 03:58:47;;;;;;;8.38;1.02;;;;;;;;;;4962306;28;20066;-73
2023/01/17 04:01:15;;;;;;;7.43;0.68;;;;;;;;;;4966523;28;20054;-73
2023/01/17 04:03:42;;;;;;;16.27;0.77;;;;;;;;;;4961696;28;20462;-73
2023/01/17 04:06:09;;;;;;;5.95;0.70;;;;;;;;;;4970111;28;20054;-73
2023/01/17 04:08:38;;;;;;;8.10;0.70;;;;;;;;;;4963167;28;20390;-72
2023/01/17 04:11:05;;;;;;;6.13;0.80;;;;;;;;;;4962948;28;20066;-73
2023/01/17 04:13:32;;;;;;;11.45;0.98;;;;;;;;;;4965705;28;20059;-72
2023/01/17 04:15:59;;;;;;;7.40;0.60;;;;;;;;;;4961175;28;20046;-72
2023/01/17 04:18:27;;;;;;;7.65;1.67;;;;;;;;;;4970591;28;20051;-73
2023/01/17 04:20:54;;;;;;;5.15;0.70;;;;;;;;;;4965402;28;20050;-72
2023/01/17 04:23:21;;;;;;;7.30;0.57;;;;;;;;;;4966223;28;20509;-73
2023/01/17 04:25:50;;;;;;;13.13;1.05;;;;;;;;;;4963527;28;20051;-73
2023/01/17 04:28:17;;;;;;;15.20;1.60;;;;;;;;;;4968914;28;20062;-73
2023/01/17 04:30:44;;;;;;;9.13;0.88;;;;;;;;;;4960619;28;20062;-72
2023/01/17 04:33:12;;;;;;;15.05;1.42;;;;;;;;;;4967127;28;20091;-73
2023/01/17 04:35:39;;;;;;;11.40;0.93;;;;;;;;;;4962381;28;20046;-72
2023/01/17 04:38:06;;;;;;;6.20;0.70;;;;;;;;;;4968850;28;20050;-73
2023/01/17 04:40:33;;;;;;;5.85;0.80;;;;;;;;;;4969275;28;20061;-72
2023/01/17 04:43:02;;;;;;;4.90;0.82;;;;;;;;;;4967524;28;20062;-72
2023/01/17 04:45:29;;;;;;;6.45;0.70;;;;;;;;;;4966475;28;20518;-73
2023/01/17 04:47:56;;;;;;;8.93;0.75;;;;;;;;;;4966456;28;20061;-73
2023/01/17 04:50:23;;;;;;;12.45;1.17;;;;;;;;;;4964988;28;20066;-72
2023/01/17 04:52:51;;;;;;;6.68;0.88;;;;;;;;;;4967589;28;20050;-72
2023/01/17 04:55:18;;;;;;;6.90;0.40;;;;;;;;;;4967456;28;20109;-72
2023/01/17 04:57:45;;;;;;;7.20;0.57;;;;;;;;;;4970643;28;20058;-73
2023/01/17 05:00:14;;;;;;;5.35;0.50;;;;;;;;;;4968040;28;20061;-73
2023/01/17 05:02:42;;;;;;;8.40;0.50;;;;;;;;;;4968318;28;20058;-72
2023/01/17 05:05:09;;;;;;;5.20;0.50;;;;;;;;;;4968185;28;20054;-73
2023/01/17 05:07:37;;;;;;;4.72;0.45;;;;;;;;;;4967047;28;20146;-73
2023/01/17 05:10:04;;;;;;;5.15;0.45;;;;;;;;;;4966657;28;20050;-73
2023/01/17 05:12:31;;;;;;;8.63;0.70;;;;;;;;;;4970380;28;20413;-72
2023/01/17 05:14:59;;;;;;;7.18;0.50;;;;;;;;;;4964381;28;20062;-72
2023/01/17 05:17:27;;;;;;;6.68;0.40;;;;;;;;;;4966110;28;20058;-71
2023/01/17 05:19:54;;;;;;;4.22;0.52;;;;;;;;;;4961866;28;20050;-73
2023/01/17 05:22:22;;;;;;;4.75;0.60;;;;;;;;;;4963431;28;20097;-73
2023/01/17 05:24:49;;;;;;;8.52;0.77;;;;;;;;;;4966478;28;20078;-73
2023/01/17 05:27:16;;;;;;;6.13;0.32;;;;;;;;;;4962563;28;20837;-73
2023/01/17 05:29:43;;;;;;;8.82;0.95;;;;;;;;;;4959735;28;20054;-72
2023/01/17 05:32:10;;;;;;;3.78;0.55;;;;;;;;;;4949618;28;20078;-72
2023/01/17 05:34:39;;;;;;;6.53;0.82;;;;;;;;;;4959855;28;20059;-73
2023/01/17 05:37:06;;;;;;;7.10;0.70;;;;;;;;;;4947678;28;20074;-73
2023/01/17 05:39:34;;;;;;;4.47;0.50;;;;;;;;;;4958279;28;20054;-72
2023/01/17 05:42:01;;;;;;;4.43;0.82;;;;;;;;;;4959672;28;20071;-73
2023/01/17 05:44:28;;;;;;;1.92;0.43;;;;;;;;;;4960610;28;20058;-73
2023/01/17 05:46:56;;;;;;;3.85;0.30;;;;;;;;;;4967751;28;20051;-73
2023/01/17 05:49:23;;;;;;;4.38;0.47;;;;;;;;;;4968905;28;20059;-73
2023/01/17 05:51:52;;;;;;;7.25;0.60;;;;;;;;;;4969763;28;20055;-73
2023/01/17 05:54:19;;;;;;;9.20;0.57;;;;;;;;;;4967685;28;20409;-72
2023/01/17 05:56:46;;;;;;;1.98;0.30;;;;;;;;;;4954862;28;20418;-73
2023/01/17 05:59:13;;;;;;;4.85;0.50;;;;;;;;;;4961450;28;20050;-73
2023/01/17 06:01:41;;;;;;;6.70;0.50;;;;;;;;;;4962667;28;20516;-73
2023/01/17 06:04:08;;;;;;;3.45;0.35;;;;;;;;;;4953054;28;20051;-73
2023/01/17 06:06:35;;;;;;;5.35;0.50;;;;;;;;;;4961521;28;20434;-72
2023/01/17 06:09:04;;;;;;;11.55;0.80;;;;;;;;;;4964633;28;20059;-73
2023/01/17 06:11:31;;;;;;;7.75;0.60;;;;;;;;;;4958602;28;20131;-72
2023/01/17 06:13:58;;;;;;;6.03;0.70;;;;;;;;;;4952464;28;20070;-72
2023/01/17 06:16:25;;;;;;;4.53;0.73;;;;;;;;;;4962327;28;20422;-73
2023/01/17 06:18:52;;;;;;;2.58;0.43;;;;;;;;;;4965086;28;20051;-72
2023/01/17 06:21:20;;;;;;;14.77;1.00;;;;;;;;;;4965841;28;20042;-73
2023/01/17 06:23:47;;;;;;;3.88;0.70;;;;;;;;;;4965324;28;20536;-73
2023/01/17 06:26:15;;;;;;;5.35;0.77;;;;;;;;;;4966821;28;20058;-72
2023/01/17 06:28:43;;;;;;;8.38;0.85;;;;;;;;;;4969371;28;20413;-73
2023/01/17 06:31:10;;;;;;;4.43;0.60;;;;;;;;;;4969401;28;20047;-72
2023/01/17 06:33:37;;;;;;;7.60;0.98;;;;;;;;;;4967347;28;20055;-72
2023/01/17 06:36:05;;;;;;;6.85;0.50;;;;;;;;;;4969043;28;20046;-71
2023/01/17 06:38:32;;;;;;;7.35;0.77;;;;;;;;;;4963100;28;20055;-72
2023/01/17 06:40:59;;;;;;;7.00;0.52;;;;;;;;;;4967805;28;20055;-73
2023/01/17 06:43:32;;;;;;;7.28;0.52;;;;;;;;;;4967954;28;20075;-72
2023/01/17 06:45:59;;;;;;;5.70;0.57;;;;;;;;;;4971544;28;20533;-72
2023/01/17 06:48:26;;;;;;;4.20;0.38;;;;;;;;;;4969417;28;20061;-72
2023/01/17 06:50:54;;;;;;;7.70;0.77;;;;;;;;;;4971995;28;20105;-73
2023/01/17 06:53:21;;;;;;;6.47;0.73;;;;;;;;;;4969169;28;20055;-72
2023/01/17 06:55:48;;;;;;;10.25;0.60;;;;;;;;;;4965778;28;20077;-72
2023/01/17 06:58:15;;;;;;;4.13;0.40;;;;;;;;;;4964807;28;20058;-72
2023/01/17 07:00:44;;;;;;;3.75;0.47;;;;;;;;;;4967801;28;20073;-73
2023/01/17 07:03:17;;;;;;;4.10;0.43;;;;;;;;;;4971665;28;20514;-73
2023/01/17 07:05:45;;;;;;;4.65;0.47;;;;;;;;;;4969565;28;20089;-73
2023/01/17 07:08:12;;;;;;;3.85;0.77;;;;;;;;;;4971532;28;20046;-73
2023/01/17 07:10:39;;;;;;;2.97;0.50;;;;;;;;;;4969988;28;20043;-73
2023/01/17 07:13:06;;;;;;;5.38;0.45;;;;;;;;;;4967610;28;20047;-73
2023/01/17 07:15:34;;;;;;;3.83;0.60;;;;;;;;;;4962700;28;20063;-73
2023/01/17 07:18:03;;;;;;;6.35;0.50;;;;;;;;;;4967464;28;20058;-73
2023/01/17 07:20:31;;;;;;;2.65;0.40;;;;;;;;;;4966695;28;20054;-73
2023/01/17 07:22:58;;;;;;;5.32;0.77;;;;;;;;;;4969454;28;20065;-72
2023/01/17 07:25:26;;;;;;;2.42;0.40;;;;;;;;;;4971074;28;20413;-73
2023/01/17 07:27:56;;;;;;;8.63;1.08;;;;;;;;;;4967051;28;20126;-72
2023/01/17 07:30:23;;;;;;;5.88;0.57;;;;;;;;;;4964741;28;20050;-73
2023/01/17 07:32:54;;;;;;;8.43;0.80;;;;;;;;;;4967048;28;20053;-72
2023/01/17 07:35:25;;;;;;;6.65;0.68;;;;;;;;;;4980996;28;20086;-73
2023/01/17 07:37:52;;;;;;;7.88;0.65;;;;;;;;;;4964409;28;20047;-73
2023/01/17 07:40:21;;;;;;;3.78;0.60;;;;;;;;;;4966411;28;20046;-72
2023/01/17 07:42:48;;;;;;;5.30;0.50;;;;;;;;;;4963954;28;20539;-71
2023/01/17 07:45:16;;;;;;;2.72;0.40;;;;;;;;;;4966719;28;20053;-73
2023/01/17 07:47:43;;;;;;;6.63;0.38;;;;;;;;;;4964703;28;20047;-73
2023/01/17 07:50:12;;;;;;;4.68;0.60;;;;;;;;;;4966832;28;20498;-73
2023/01/17 07:52:41;;;;;;;2.95;0.30;;;;;;;;;;4969445;28;20054;-73
2023/01/17 07:55:09;;;;;;;1.95;0.38;;;;;;;;;;4966529;28;20134;-73
2023/01/17 07:57:36;;;;;;;7.75;1.48;;;;;;;;;;4968411;28;20417;-73
2023/01/17 08:00:05;;;;;;;4.70;0.50;;;;;;;;;;4963780;28;20051;-73
2023/01/17 08:02:32;;;;;;;2.72;0.35;;;;;;;;;;4970968;28;20047;-73
2023/01/17 08:04:59;;;;;;;6.32;0.68;;;;;;;;;;4964394;28;20051;-74
2023/01/17 08:07:28;;;;;;;15.73;1.05;;;;;;;;;;4968498;28;20764;-73
2023/01/17 08:09:56;;;;;;;5.95;0.70;;;;;;;;;;4970034;28;20067;-73
2023/01/17 08:12:24;;;;;;;7.47;0.43;;;;;;;;;;4969419;28;20413;-74
2023/01/17 08:14:52;;;;;;;9.55;1.02;;;;;;;;;;4967513;28;20112;-72
2023/01/17 08:17:20;;;;;;;5.65;0.98;;;;;;;;;;4966966;28;20062;-72
2023/01/17 08:19:50;;;;;;;6.72;0.57;;;;;;;;;;4961719;28;20057;-72
2023/01/17 08:22:18;;;;;;;7.35;0.50;;;;;;;;;;4967541;28;20053;-73
2023/01/17 08:24:45;;;;;;;9.00;0.63;;;;;;;;;;4963217;28;20047;-72
2023/01/17 08:27:14;;;;;;;5.22;0.70;;;;;;;;;;4966338;28;20047;-72
2023/01/17 08:29:45;;;;;;;5.80;0.50;;;;;;;;;;4966360;28;20047;-72
2023/01/17 08:32:13;;;;;;;2.05;0.43;;;;;;;;;;4961981;28;20224;-73
2023/01/17 08:34:40;;;;;;;7.30;1.30;;;;;;;;;;4965445;28;20524;-72
2023/01/17 08:37:07;;;;;;;5.30;0.50;;;;;;;;;;4965919;28;20047;-72
2023/01/17 08:39:34;;;;;;;11.85;1.10;;;;;;;;;;4967566;28;20085;-73
2023/01/17 08:42:02;;;;;;;6.65;0.60;;;;;;;;;;4967828;28;20051;-73
2023/01/17 08:44:30;;;;;;;6.93;0.32;;;;;;;;;;4963950;28;20054;-73
2023/01/17 08:46:57;;;;;;;3.17;0.50;;;;;;;;;;4968261;28;21170;-72
2023/01/17 08:49:25;;;;;;;6.63;0.90;;;;;;;;;;4965421;28;20061;-73
2023/01/17 08:51:52;;;;;;;1.73;0.40;;;;;;;;;;4968241;28;20051;-72
2023/01/17 08:54:21;;;;;;;6.63;0.55;;;;;;;;;;4966653;28;20398;-73
2023/01/17 08:56:48;;;;;;;3.53;0.35;;;;;;;;;;4964171;28;20047;-73
2023/01/17 08:59:15;;;;;;;1.65;0.20;;;;;;;;;;4966768;28;20500;-73
2023/01/17 09:01:44;;;;;;;2.40;0.28;;;;;;;;;;4969695;28;20055;-73
2023/01/17 09:04:12;;;;;;;3.47;0.50;;;;;;;;;;4968399;28;20051;-73
2023/01/17 09:06:40;;;;;;;1.67;0.63;;;;;;;;;;4969616;28;20059;-73
2023/01/17 09:09:07;;;;;;;4.68;1.08;;;;;;;;;;4968381;28;20551;-73
2023/01/17 09:11:35;;;;;;;2.88;0.60;;;;;;;;;;4963233;28;20367;-73
2023/01/17 09:14:02;;;;;;;2.70;0.73;;;;;;;;;;4964757;28;20050;-73
2023/01/17 09:16:29;;;;;;;3.13;0.50;;;;;;;;;;4969017;28;20405;-73
2023/01/17 09:18:58;;;;;;;2.95;0.40;;;;;;;;;;4962247;28;20498;-74
2023/01/17 09:21:26;;;;;;;2.92;0.30;;;;;;;;;;4964689;28;20457;-72
2023/01/17 09:23:54;;;;;;;4.30;0.70;;;;;;;;;;4961768;28;20050;-73
2023/01/17 09:26:23;;;;;;;3.78;0.52;;;;;;;;;;4969022;28;20418;-74
2023/01/17 09:28:50;;;;;;;2.45;0.75;;;;;;;;;;4964762;28;20123;-74
2023/01/17 09:31:19;;;;;;;4.97;0.60;;;;;;;;;;4967377;28;20494;-73
2023/01/17 09:33:46;;;;;;;2.17;0.40;;;;;;;;;;4967590;28;20051;-74
2023/01/17 09:36:15;;;;;;;7.28;0.40;;;;;;;;;;4966933;28;20046;-74
2023/01/17 09:38:43;;;;;;;4.70;0.43;;;;;;;;;;4970832;28;20050;-74
2023/01/17 09:41:28;;;;;;;3.33;0.38;;;;;;;;;;4967616;28;20053;-74
2023/01/17 09:43:57;;;;;;;2.78;0.55;;;;;;;;;;4964795;28;20074;-75
2023/01/17 09:46:25;;;;;;;7.25;0.40;;;;;;;;;;4969900;28;20122;-77
2023/01/17 09:48:56;;;;;;;6.75;0.60;;;;;;;;;;4971039;28;20058;-78
2023/01/17 09:51:25;;;;;;;5.75;0.63;;;;;;;;;;4985959;28;20520;-76
2023/01/17 09:53:53;;;;;;;3.35;0.28;;;;;;;;;;4971533;28;20055;-78
2023/01/17 09:56:22;;;;;;;7.82;0.47;;;;;;;;;;4970774;28;20050;-77
2023/01/17 09:58:54;;;;;;;4.53;0.38;;;;;;;;;;4969955;28;20055;-77
2023/01/17 10:01:26;;;;;;;3.22;0.60;;;;;;;;;;4961208;28;20058;-77
2023/01/17 10:04:00;;;;;;;1.80;0.45;;;;;;;;;;4972277;28;20059;-76
2023/01/17 10:06:37;;;;;;;8.20;0.50;;;;;;;;;;4972248;28;20070;-77
2023/01/17 10:09:14;;;;;;;9.68;0.90;;;;;;;;;;4969497;28;20058;-76
2023/01/17 10:11:48;;;;;;;5.35;0.43;;;;;;;;;;4965150;28;20050;-76
2023/01/17 10:14:15;;;;;;;;;;;;;;;;;;4970380;28;20054;-76
2023/01/17 10:16:46;;;;;;;2.53;0.40;;;;;;;;;;4971041;28;19929;-77
2023/01/17 10:19:18;;;;;;;3.50;0.20;;;;;;;;;;4966890;28;20047;-77
2023/01/17 10:22:03;;;;;;;4.82;0.50;;;;;;;;;;4966071;28;20102;-76
2023/01/17 10:24:48;;;;;;;3.42;0.43;;;;;;;;;;4964832;28;20455;-76
2023/01/17 10:27:19;;;;;;;1.35;0.30;;;;;;;;;;4963899;28;20134;-76
2023/01/17 10:29:46;;;;;;;5.03;0.60;;;;;;;;;;4967124;28;20057;-76
2023/01/17 10:32:15;;;;;;;6.85;0.30;;;;;;;;;;4970049;28;20057;-77
2023/01/17 10:34:45;;;;;;;4.85;0.40;;;;;;;;;;4967394;28;20446;-77
2023/01/17 10:37:17;;;;;;;6.75;0.60;;;;;;;;;;4958786;28;20047;-76
2023/01/17 10:39:45;;;;;;;5.15;0.40;;;;;;;;;;4968606;28;20054;-76
2023/01/17 10:42:17;;;;;;;4.40;0.40;;;;;;;;;;4957921;28;20120;-76
2023/01/17 10:44:47;;;;;;;2.70;0.63;;;;;;;;;;4982059;28;20063;-77
2023/01/17 10:47:18;;;;;;;8.68;0.98;;;;;;;;;;4967307;28;20139;-76
2023/01/17 10:49:47;;;;;;;4.90;0.60;;;;;;;;;;4982456;28;20110;-76
2023/01/17 10:52:20;;;;;;;4.63;0.50;;;;;;;;;;4968239;28;20533;-76
2023/01/17 10:54:51;;;;;;;2.97;0.38;;;;;;;;;;4966507;28;20398;-76
2023/01/17 10:57:21;;;;;;;3.88;0.60;;;;;;;;;;4968714;28;20050;-76
2023/01/17 10:59:48;;;;;;;8.57;0.50;;;;;;;;;;4980593;28;20058;-76
2023/01/17 11:02:19;;;;;;;10.00;0.70;;;;;;;;;;4965545;28;20058;-76
2023/01/17 11:04:48;;;;;;;3.00;0.63;;;;;;;;;;4962712;28;20051;-76
2023/01/17 11:07:16;;;;;;;8.52;0.60;;;;;;;;;;4968915;28;20489;-77
2023/01/17 11:09:45;;;;;;;3.22;0.40;;;;;;;;;;4966894;28;20053;-77
2023/01/17 11:12:25;;;;;;;4.22;0.57;;;;;;;;;;4965888;28;20501;-76
2023/01/17 11:14:57;;;;;;;10.23;2.10;;;;;;;;;;4964211;28;20406;-76
2023/01/17 11:17:25;;;;;;;9.25;1.63;;;;;;;;;;4969923;28;20520;-76
2023/01/17 11:19:53;;;;;;;5.80;1.05;;;;;;;;;;4963507;28;20138;-76
2023/01/17 11:22:20;;;;;;;7.13;0.82;;;;;;;;;;4972153;28;20073;-77
2023/01/17 11:24:51;;;;;;;8.82;1.00;;;;;;;;;;4974330;28;20144;-77
2023/01/17 11:27:26;;;;;;;3.65;0.63;;;;;;;;;;4966934;28;20055;-77
2023/01/17 11:30:05;;;;;;;5.20;1.10;;;;;;;;;;4967125;28;20042;-76
2023/01/17 11:32:33;;;;;;;7.22;1.10;;;;;;;;;;4967674;28;20054;-76
2023/01/17 11:35:08;;;;;;;8.27;0.65;;;;;;;;;;4963387;28;20051;-76
2023/01/17 11:37:36;;;;;;;2.25;0.50;;;;;;;;;;4965748;28;20066;-76
2023/01/17 11:40:09;;;;;;;5.30;0.55;;;;;;;;;;4969961;28;20043;-75
2023/01/17 11:42:37;;;;;;;10.97;1.03;;;;;;;;;;4969420;28;21039;-75
2023/01/17 11:45:23;;;;;;;3.83;0.65;;;;;;;;;;4966331;28;20421;-77
2023/01/17 11:47:50;;;;;;;4.88;0.50;;;;;;;;;;4964653;28;20055;-76
2023/01/17 11:50:24;;;;;;;9.02;1.50;;;;;;;;;;4965306;28;20035;-76
2023/01/17 11:52:51;;;;;;;6.63;0.50;;;;;;;;;;4968942;28;20054;-76
2023/01/17 11:55:21;;;;;;;6.10;0.57;;;;;;;;;;4964819;28;20050;-76
2023/01/17 11:57:50;;;;;;;8.55;0.75;;;;;;;;;;4968047;28;20055;-76
2023/01/17 12:00:20;;;;;;;3.28;0.40;;;;;;;;;;4966530;28;20051;-76
2023/01/17 12:02:57;;;;;;;3.78;0.70;;;;;;;;;;4969142;28;20451;-77
2023/01/17 12:05:40;;;;;;;5.55;0.43;;;;;;;;;;4965323;28;20066;-76
2023/01/17 12:08:14;;;;;;;4.07;0.50;;;;;;;;;;4965985;28;20079;-76
2023/01/17 12:10:49;;;;;;;2.45;0.30;;;;;;;;;;4968238;28;20055;-76
2023/01/17 12:16:28;;;;;;;1.63;0.30;;;;;;;;;;4967722;28;20056;-75
2023/01/17 12:18:58;;;;;;;2.30;0.30;;;;;;;;;;4965919;28;20465;-76
2023/01/17 12:21:33;;;;;;;7.07;0.50;;;;;;;;;;4964810;28;20058;-77
2023/01/17 12:24:27;;;;;;;4.93;0.60;;;;;;;;;;4968957;28;20137;-76
2023/01/17 12:27:01;;;;;;;3.85;0.60;;;;;;;;;;4934358;28;20584;-75
2023/01/17 12:29:53;;;;;;;6.25;0.73;;;;;;;;;;4966716;28;20051;-76
2023/01/17 12:32:35;;;;;;;2.33;0.38;;;;;;;;;;4954642;28;20494;-75
2023/01/17 12:35:04;;;;;;;5.95;0.95;;;;;;;;;;4963339;28;20050;-76
2023/01/17 12:37:33;;;;;;;8.15;0.77;;;;;;;;;;4964145;28;20050;-75
2023/01/17 12:40:03;;;;;;;4.10;0.60;;;;;;;;;;4968710;28;20117;-76
2023/01/17 12:42:33;;;;;;;2.53;0.65;;;;;;;;;;4966595;28;20244;-75
2023/01/17 12:45:03;;;;;;;10.18;1.35;;;;;;;;;;4969161;28;20080;-77
2023/01/17 12:47:35;;;;;;;4.65;0.50;;;;;;;;;;4964404;28;20069;-76
2023/01/17 12:50:06;;;;;;;3.67;0.60;;;;;;;;;;4967151;28;20054;-77
2023/01/17 12:52:42;;;;;;;3.42;0.57;;;;;;;;;;4964351;28;20054;-76
2023/01/17 12:55:14;;;;;;;4.78;0.90;;;;;;;;;;4968229;28;20047;-76
2023/01/17 12:57:45;;;;;;;3.85;0.60;;;;;;;;;;4967684;28;20058;-75
2023/01/17 13:00:18;;;;;;;5.15;0.57;;;;;;;;;;4967500;28;20046;-76
2023/01/17 13:02:48;;;;;;;3.30;0.47;;;;;;;;;;4966012;28;20047;-76
2023/01/17 13:05:22;;;;;;;3.80;0.68;;;;;;;;;;4966849;28;20057;-76
2023/01/17 13:07:54;;;;;;;5.13;0.50;;;;;;;;;;4965929;28;20046;-76
2023/01/17 13:10:24;;;;;;;3.42;0.30;;;;;;;;;;4967651;28;20053;-75
2023/01/17 13:12:54;;;;;;;4.28;0.50;;;;;;;;;;4968714;28;20065;-76
2023/01/17 13:15:23;;;;;;;3.78;0.40;;;;;;;;;;4963593;28;20058;-76
2023/01/17 13:17:52;;;;;;;3.72;0.50;;;;;;;;;;4969123;28;20509;-76
2023/01/17 13:20:21;;;;;;;4.03;0.35;;;;;;;;;;4967159;28;20050;-76
2023/01/17 13:22:49;;;;;;;3.15;0.40;;;;;;;;;;4968213;28;20136;-76
2023/01/17 13:25:25;;;;;;;6.40;0.55;;;;;;;;;;4966655;28;20054;-76
2023/01/17 13:28:07;;;;;;;5.10;0.50;;;;;;;;;;4967969;28;20054;-76
2023/01/17 13:31:02;;;;;;;9.00;0.50;;;;;;;;;;4967620;28;20534;-76
2023/01/17 13:33:34;;;;;;;3.05;0.40;;;;;;;;;;4965472;28;20063;-76
2023/01/17 13:36:10;;;;;;;5.55;0.43;;;;;;;;;;4964375;28;20150;-76
2023/01/17 13:38:54;;;;;;;21.40;2.38;;;;;;;;;;4961915;28;20112;-76
2023/01/17 13:41:43;;;;;;;3.13;0.30;;;;;;;;;;4966675;28;20059;-76
2023/01/17 13:44:23;;;;;;;3.35;0.47;;;;;;;;;;4966358;28;20055;-76
2023/01/17 13:47:01;;;;;;;8.95;2.40;;;;;;;;;;4965734;28;20093;-77
2023/01/17 13:49:33;;;;;;;3.15;0.30;;;;;;;;;;4965526;28;20059;-76
2023/01/17 13:52:08;;;;;;;4.97;0.40;;;;;;;;;;4976439;28;20050;-77
2023/01/17 13:54:42;;;;;;;4.85;0.40;;;;;;;;;;4961418;28;20054;-77
2023/01/17 13:57:31;;;;;;;2.30;0.40;;;;;;;;;;4963093;28;20053;-75
2023/01/17 14:00:00;;;;;;;5.22;0.55;;;;;;;;;;4963069;28;20482;-76
2023/01/17 14:02:38;;;;;;;4.70;0.38;;;;;;;;;;4968301;28;20062;-76
2023/01/17 14:05:11;;;;;;;5.45;0.40;;;;;;;;;;4965458;28;20054;-76
2023/01/17 14:07:43;;;;;;;4.65;0.40;;;;;;;;;;4963302;28;20506;-76
2023/01/17 14:10:21;;;;;;;1.60;0.30;;;;;;;;;;4960947;28;20047;-75
2023/01/17 14:12:49;;;;;;;4.07;0.60;;;;;;;;;;4966536;28;20061;-76
2023/01/17 14:15:21;;;;;;;3.25;0.40;;;;;;;;;;4964215;28;20057;-76
2023/01/17 14:17:51;;;;;;;2.83;0.38;;;;;;;;;;4970195;28;20133;-75
2023/01/17 14:20:37;;;;;;;5.57;0.45;;;;;;;;;;4970357;28;20833;-76
2023/01/17 14:23:14;;;;;;;5.10;0.47;;;;;;;;;;4969639;28;20066;-75
2023/01/17 14:25:42;;;;;;;4.07;0.43;;;;;;;;;;4963916;28;20058;-76
2023/01/17 14:28:21;;;;;;;2.97;0.40;;;;;;;;;;4968867;28;20067;-76
2023/01/17 14:30:53;;;;;;;7.13;0.50;;;;;;;;;;4963979;28;20047;-76
2023/01/17 14:33:23;;;;;;;4.35;0.90;;;;;;;;;;4968330;28;20054;-76
2023/01/17 14:35:52;;;;;;;5.50;0.50;;;;;;;;;;4965331;28;20042;-75
2023/01/17 14:38:21;;;;;;;7.78;1.33;;;;;;;;;;4968249;28;20043;-76
2023/01/17 14:40:53;;;;;;;4.63;0.32;;;;;;;;;;4980839;28;20043;-76
2023/01/17 14:43:21;;;;;;;6.10;0.80;;;;;;;;;;4967248;28;20058;-76
2023/01/17 14:45:49;;;;;;;3.67;0.80;;;;;;;;;;4967265;28;20058;-76
2023/01/17 14:48:19;;;;;;;5.47;0.88;;;;;;;;;;4958631;28;20061;-74
2023/01/17 14:50:47;;;;;;;6.32;1.00;;;;;;;;;;4970054;28;20038;-76
2023/01/17 14:53:17;;;;;;;4.90;1.00;;;;;;;;;;4971916;28;20054;-76
2023/01/17 14:55:51;;;;;;;7.65;0.88;;;;;;;;;;4968518;28;20043;-74
2023/01/17 14:58:19;;;;;;;4.97;0.75;;;;;;;;;;4961988;28;20062;-75
2023/01/17 15:00:48;;;;;;;6.65;0.73;;;;;;;;;;4974467;28;20406;-76
2023/01/17 15:03:15;;;;;;;5.43;0.68;;;;;;;;;;4967977;28;20055;-76
2023/01/17 15:05:46;;;;;;;4.28;0.50;;;;;;;;;;4967147;28;20418;-75
2023/01/17 15:08:14;;;;;;;8.98;1.17;;;;;;;;;;4965893;28;20043;-75
2023/01/17 15:10:47;;;;;;;3.03;0.55;;;;;;;;;;4966634;28;20047;-76
2023/01/17 15:13:17;;;;;;;7.57;0.70;;;;;;;;;;4965928;28;20062;-75
2023/01/17 15:15:45;;;;;;;3.13;0.50;;;;;;;;;;4963411;28;20058;-76
2023/01/17 15:18:19;;;;;;;4.95;0.80;;;;;;;;;;4964738;28;20072;-75
2023/01/17 15:20:50;;;;;;;3.47;0.93;;;;;;;;;;4971927;28;20063;-75
2023/01/17 15:23:20;;;;;;;5.78;0.70;;;;;;;;;;4964475;28;20077;-75
2023/01/17 15:25:47;;;;;;;9.15;0.88;;;;;;;;;;4970275;28;20070;-76
2023/01/17 15:28:15;;;;;;;2.90;0.88;;;;;;;;;;4968718;28;20413;-76
2023/01/17 15:30:57;;;;;;;5.10;1.10;;;;;;;;;;4966734;28;20043;-74
2023/01/17 15:33:25;;;;;;;12.27;1.20;;;;;;;;;;4958752;28;20061;-76
2023/01/17 15:36:00;;;;;;;5.07;0.90;;;;;;;;;;4962911;28;20754;-76
2023/01/17 15:38:27;;;;;;;6.85;2.42;;;;;;;;;;4965130;28;20074;-76
2023/01/17 15:40:55;;;;;;;9.20;0.90;;;;;;;;;;4969547;28;20405;-75
2023/01/17 15:43:25;;;;;;;4.13;0.80;;;;;;;;;;4967821;28;20061;-76
2023/01/17 15:45:56;;;;;;;4.78;1.20;;;;;;;;;;4964607;28;20130;-76
2023/01/17 15:48:31;;;;;;;7.10;0.90;;;;;;;;;;4967537;28;20055;-75
2023/01/17 15:51:00;;;;;;;5.28;1.45;;;;;;;;;;4963926;28;20047;-75
2023/01/17 15:53:31;;;;;;;6.35;1.60;;;;;;;;;;4967664;28;20061;-75
2023/01/17 15:55:59;;;;;;;16.05;2.20;;;;;;;;;;4974071;28;20077;-75
2023/01/17 15:58:27;;;;;;;7.35;1.45;;;;;;;;;;4960146;28;20057;-75
2023/01/17 16:00:55;;;;;;;9.18;1.60;;;;;;;;;;4966493;28;20046;-75
2023/01/17 16:03:23;;;;;;;11.57;2.50;;;;;;;;;;4970199;28;20054;-75
2023/01/17 16:05:52;;;;;;;10.07;1.60;;;;;;;;;;4968919;28;20054;-75
2023/01/17 16:08:35;;;;;;;8.30;1.42;;;;;;;;;;4969101;28;20055;-75
2023/01/17 16:11:05;;;;;;;9.25;1.65;;;;;;;;;;4965340;28;20136;-74
2023/01/17 16:13:33;;;;;;;6.55;1.23;;;;;;;;;;4963593;28;20129;-74
2023/01/17 16:16:25;;;;;;;3.60;0.63;;;;;;;;;;4966026;28;20126;-74
2023/01/17 16:18:58;;;;;;;3.53;0.98;;;;;;;;;;4957006;28;20153;-74